createdAt,value
2023-05-16T00:00:17.613Z,441.00
2023-05-16T00:01:17.644Z,442.00
2023-05-16T00:02:17.725Z,439.00
2023-05-16T00:03:17.782Z,438.00
2023-05-16T00:04:17.842Z,440.00
2023-05-16T00:05:17.849Z,438.00
2023-05-16T00:06:17.856Z,439.00
2023-05-16T00:07:17.903Z,440.00
2023-05-16T00:08:17.945Z,438.00
2023-05-16T00:09:17.983Z,440.00
2023-05-16T00:10:18.025Z,445.00
2023-05-16T00:11:18.059Z,446.00
2023-05-16T00:12:18.153Z,446.00
2023-05-16T00:13:18.153Z,445.00
2023-05-16T00:14:18.221Z,445.00
2023-05-16T00:15:18.242Z,447.00
2023-05-16T00:16:18.311Z,443.00
2023-05-16T00:17:18.348Z,442.00
2023-05-16T00:18:18.364Z,439.00
2023-05-16T00:19:18.448Z,437.00
2023-05-16T00:20:18.456Z,438.00
2023-05-16T00:21:18.535Z,437.00
2023-05-16T00:22:18.565Z,436.00
2023-05-16T00:23:18.579Z,436.00
2023-05-16T00:24:18.650Z,437.00
2023-05-16T00:25:18.711Z,434.00
2023-05-16T00:26:18.759Z,436.00
2023-05-16T00:27:18.792Z,437.00
2023-05-16T00:28:18.828Z,436.00
2023-05-16T00:29:18.888Z,437.00
2023-05-16T00:30:18.957Z,437.00
2023-05-16T00:31:18.977Z,438.00
2023-05-16T00:32:19.197Z,439.00
2023-05-16T00:33:19.081Z,438.00
2023-05-16T00:34:19.111Z,436.00
2023-05-16T00:35:19.134Z,434.00
2023-05-16T00:36:20.125Z,432.00
2023-05-16T00:37:19.273Z,435.00
2023-05-16T00:38:19.310Z,434.00
2023-05-16T00:39:19.395Z,439.00
2023-05-16T00:40:19.429Z,439.00
2023-05-16T00:41:19.461Z,441.00
2023-05-16T00:42:19.497Z,441.00
2023-05-16T00:43:19.547Z,441.00
2023-05-16T00:44:19.633Z,439.00
2023-05-16T00:45:19.654Z,435.00
2023-05-16T00:46:19.734Z,433.00
2023-05-16T00:47:19.746Z,435.00
2023-05-16T00:48:19.787Z,439.00
2023-05-16T00:49:19.858Z,438.00
2023-05-16T00:50:19.904Z,438.00
2023-05-16T00:51:19.939Z,440.00
2023-05-16T00:52:20.038Z,441.00
2023-05-16T00:53:20.118Z,444.00
2023-05-16T00:54:20.104Z,444.00
2023-05-16T00:55:20.175Z,442.00
2023-05-16T00:56:20.215Z,440.00
2023-05-16T00:57:47.721Z,461.00
2023-05-16T00:58:47.707Z,458.00
2023-05-16T00:59:47.762Z,457.00
2023-05-16T01:00:48.688Z,453.00
2023-05-16T01:01:47.713Z,454.00
2023-05-16T01:02:47.777Z,452.00
2023-05-16T01:03:47.828Z,450.00
2023-05-16T01:04:47.687Z,449.00
2023-05-16T01:05:47.678Z,447.00
2023-05-16T01:06:47.675Z,448.00
2023-05-16T01:07:47.622Z,449.00
2023-05-16T01:08:47.671Z,451.00
2023-05-16T01:09:47.650Z,452.00
2023-05-16T01:10:47.653Z,451.00
2023-05-16T01:11:47.633Z,450.00
2023-05-16T01:12:47.625Z,451.00
2023-05-16T01:13:49.472Z,448.00
2023-05-16T01:14:47.610Z,445.00
2023-05-16T01:15:47.596Z,447.00
2023-05-16T01:16:47.576Z,450.00
2023-05-16T01:17:47.639Z,450.00
2023-05-16T01:18:47.597Z,450.00
2023-05-16T01:19:47.580Z,449.00
2023-05-16T01:20:47.567Z,450.00
2023-05-16T01:21:47.534Z,451.00
2023-05-16T01:22:47.604Z,450.00
2023-05-16T01:23:47.640Z,450.00
2023-05-16T01:24:47.715Z,450.00
2023-05-16T01:25:47.771Z,451.00
2023-05-16T01:26:47.856Z,451.00
2023-05-16T01:27:47.891Z,451.00
2023-05-16T01:28:47.926Z,451.00
2023-05-16T01:29:47.976Z,449.00
2023-05-16T01:30:48.067Z,448.00
2023-05-16T01:31:48.200Z,446.00
2023-05-16T01:32:48.218Z,445.00
2023-05-16T01:33:48.242Z,446.00
2023-05-16T01:34:48.296Z,444.00
2023-05-16T01:35:48.322Z,444.00
2023-05-16T01:36:48.406Z,445.00
2023-05-16T01:37:48.454Z,446.00
2023-05-16T01:38:48.542Z,445.00
2023-05-16T01:39:48.613Z,444.00
2023-05-16T01:40:48.661Z,443.00
2023-05-16T01:41:48.724Z,444.00
2023-05-16T01:42:48.746Z,445.00
2023-05-16T01:43:48.808Z,448.00
2023-05-16T01:44:48.893Z,449.00
2023-05-16T01:45:48.959Z,451.00
2023-05-16T01:46:49.027Z,453.00
2023-05-16T01:47:49.091Z,454.00
2023-05-16T01:48:49.128Z,453.00
2023-05-16T01:49:49.196Z,454.00
2023-05-16T01:50:49.234Z,453.00
2023-05-16T01:51:49.286Z,451.00
2023-05-16T01:52:49.364Z,449.00
2023-05-16T01:53:49.392Z,448.00
2023-05-16T01:54:49.469Z,448.00
2023-05-16T01:55:49.553Z,449.00
2023-05-16T01:56:49.557Z,447.00
2023-05-16T01:57:49.640Z,446.00
2023-05-16T01:58:49.668Z,450.00
2023-05-16T01:59:49.740Z,453.00
2023-05-16T02:00:49.886Z,452.00
2023-05-16T02:01:49.873Z,451.00
2023-05-16T02:02:50.019Z,452.00
2023-05-16T02:03:50.040Z,451.00
2023-05-16T02:04:50.010Z,451.00
2023-05-16T02:05:50.096Z,453.00
2023-05-16T02:06:50.126Z,453.00
2023-05-16T02:07:50.202Z,449.00
2023-05-16T02:08:50.282Z,449.00
2023-05-16T02:09:50.315Z,451.00
2023-05-16T02:10:50.403Z,453.00
2023-05-16T02:11:50.428Z,449.00
2023-05-16T02:12:50.515Z,453.00
2023-05-16T02:13:50.565Z,452.00
2023-05-16T02:14:50.636Z,448.00
2023-05-16T02:15:50.740Z,450.00
2023-05-16T02:16:50.776Z,453.00
2023-05-16T02:17:50.839Z,453.00
2023-05-16T02:18:50.945Z,455.00
2023-05-16T02:19:50.919Z,453.00
2023-05-16T02:20:51.017Z,454.00
2023-05-16T02:21:51.062Z,456.00
2023-05-16T02:22:51.151Z,455.00
2023-05-16T02:23:51.192Z,455.00
2023-05-16T02:24:51.246Z,454.00
2023-05-16T02:25:51.327Z,453.00
2023-05-16T02:26:51.392Z,451.00
2023-05-16T02:27:51.418Z,450.00
2023-05-16T02:28:51.492Z,447.00
2023-05-16T02:29:51.510Z,448.00
2023-05-16T02:30:51.630Z,447.00
2023-05-16T02:31:51.665Z,447.00
2023-05-16T02:32:51.720Z,450.00
2023-05-16T02:33:51.748Z,451.00
2023-05-16T02:34:51.783Z,451.00
2023-05-16T02:35:51.870Z,449.00
2023-05-16T02:36:51.906Z,447.00
2023-05-16T02:37:52.008Z,448.00
2023-05-16T02:38:52.062Z,449.00
2023-05-16T02:39:52.121Z,449.00
2023-05-16T02:40:52.353Z,449.00
2023-05-16T02:41:52.208Z,451.00
2023-05-16T02:42:52.308Z,450.00
2023-05-16T02:43:52.313Z,448.00
2023-05-16T02:44:52.416Z,448.00
2023-05-16T02:45:52.501Z,445.00
2023-05-16T02:46:52.595Z,447.00
2023-05-16T02:47:52.594Z,448.00
2023-05-16T02:48:52.637Z,447.00
2023-05-16T02:49:52.628Z,448.00
2023-05-16T02:50:52.733Z,449.00
2023-05-16T02:51:52.752Z,452.00
2023-05-16T02:52:52.790Z,452.00
2023-05-16T02:53:52.876Z,452.00
2023-05-16T02:55:52.862Z,451.00
2023-05-16T02:56:52.874Z,452.00
2023-05-16T02:57:52.875Z,450.00
2023-05-16T02:58:52.828Z,451.00
2023-05-16T02:59:52.869Z,451.00
2023-05-16T03:00:52.849Z,449.00
2023-05-16T03:01:52.897Z,449.00
2023-05-16T03:02:52.910Z,450.00
2023-05-16T03:03:52.927Z,451.00
2023-05-16T03:04:52.785Z,451.00
2023-05-16T03:05:52.807Z,450.00
2023-05-16T03:06:52.783Z,450.00
2023-05-16T03:07:52.804Z,450.00
2023-05-16T03:08:52.793Z,450.00
2023-05-16T03:09:52.780Z,450.00
2023-05-16T03:10:52.773Z,452.00
2023-05-16T03:11:52.746Z,454.00
2023-05-16T03:12:52.781Z,454.00
2023-05-16T03:13:52.748Z,454.00
2023-05-16T03:14:52.780Z,454.00
2023-05-16T03:15:52.777Z,454.00
2023-05-16T03:16:52.720Z,456.00
2023-05-16T03:17:52.751Z,458.00
2023-05-16T03:18:52.770Z,458.00
2023-05-16T03:19:52.716Z,460.00
2023-05-16T03:20:52.712Z,461.00
2023-05-16T03:21:52.716Z,460.00
2023-05-16T03:22:52.705Z,460.00
2023-05-16T03:23:52.666Z,460.00
2023-05-16T03:24:52.667Z,458.00
2023-05-16T03:25:52.662Z,457.00
2023-05-16T03:26:52.677Z,457.00
2023-05-16T03:27:52.662Z,457.00
2023-05-16T03:28:52.642Z,458.00
2023-05-16T03:29:52.636Z,459.00
2023-05-16T03:30:52.684Z,457.00
2023-05-16T03:31:52.660Z,457.00
2023-05-16T03:32:52.649Z,460.00
2023-05-16T03:33:52.606Z,458.00
2023-05-16T03:34:52.608Z,455.00
2023-05-16T03:35:52.613Z,457.00
2023-05-16T03:36:52.601Z,457.00
2023-05-16T03:37:52.592Z,455.00
2023-05-16T03:38:52.559Z,455.00
2023-05-16T03:39:52.583Z,454.00
2023-05-16T03:40:52.581Z,455.00
2023-05-16T03:41:52.563Z,455.00
2023-05-16T03:42:52.558Z,455.00
2023-05-16T03:43:52.570Z,456.00
2023-05-16T03:44:52.531Z,456.00
2023-05-16T03:45:52.577Z,456.00
2023-05-16T03:46:52.524Z,458.00
2023-05-16T03:47:52.513Z,456.00
2023-05-16T03:48:52.502Z,454.00
2023-05-16T03:49:52.500Z,450.00
2023-05-16T03:50:52.544Z,451.00
2023-05-16T03:51:52.636Z,450.00
2023-05-16T03:52:52.661Z,453.00
2023-05-16T03:53:52.688Z,458.00
2023-05-16T03:54:52.695Z,461.00
2023-05-16T03:55:52.744Z,462.00
2023-05-16T03:56:52.772Z,463.00
2023-05-16T03:57:52.775Z,464.00
2023-05-16T03:58:52.781Z,465.00
2023-05-16T03:59:52.787Z,466.00
2023-05-16T04:00:52.797Z,464.00
2023-05-16T04:01:52.818Z,465.00
2023-05-16T04:02:52.877Z,460.00
2023-05-16T04:03:52.777Z,463.00
2023-05-16T04:04:52.782Z,460.00
2023-05-16T04:05:52.833Z,461.00
2023-05-16T04:06:52.777Z,460.00
2023-05-16T04:07:52.792Z,456.00
2023-05-16T04:08:52.788Z,456.00
2023-05-16T04:09:52.810Z,458.00
2023-05-16T04:10:52.789Z,459.00
2023-05-16T04:11:52.792Z,459.00
2023-05-16T04:12:52.767Z,456.00
2023-05-16T04:13:52.804Z,458.00
2023-05-16T04:14:52.802Z,459.00
2023-05-16T04:15:52.756Z,458.00
2023-05-16T04:16:52.805Z,458.00
2023-05-16T04:17:52.858Z,459.00
2023-05-16T04:18:52.779Z,460.00
2023-05-16T04:19:52.793Z,461.00
2023-05-16T04:20:52.793Z,462.00
2023-05-16T04:21:52.764Z,462.00
2023-05-16T04:22:52.772Z,461.00
2023-05-16T04:23:52.767Z,462.00
2023-05-16T04:24:52.778Z,461.00
2023-05-16T04:25:52.788Z,462.00
2023-05-16T04:26:52.771Z,458.00
2023-05-16T04:27:52.784Z,457.00
2023-05-16T04:28:52.818Z,460.00
2023-05-16T04:29:52.755Z,460.00
2023-05-16T04:30:52.789Z,459.00
2023-05-16T04:31:52.789Z,460.00
2023-05-16T04:32:52.913Z,459.00
2023-05-16T04:33:52.807Z,461.00
2023-05-16T04:34:52.803Z,463.00
2023-05-16T04:35:52.826Z,463.00
2023-05-16T04:36:52.841Z,463.00
2023-05-16T04:37:52.834Z,463.00
2023-05-16T04:38:52.860Z,466.00
2023-05-16T04:39:52.852Z,465.00
2023-05-16T04:40:52.861Z,464.00
2023-05-16T04:41:52.905Z,461.00
2023-05-16T04:42:52.886Z,461.00
2023-05-16T04:43:52.902Z,462.00
2023-05-16T04:44:52.845Z,461.00
2023-05-16T04:45:52.948Z,464.00
2023-05-16T04:46:53.096Z,461.00
2023-05-16T04:47:52.950Z,462.00
2023-05-16T04:48:52.870Z,464.00
2023-05-16T04:49:52.896Z,467.00
2023-05-16T04:50:52.918Z,466.00
2023-05-16T04:51:52.857Z,465.00
2023-05-16T04:52:54.087Z,465.00
2023-05-16T04:53:52.856Z,462.00
2023-05-16T04:54:52.862Z,461.00
2023-05-16T04:55:52.851Z,460.00
2023-05-16T04:56:52.823Z,459.00
2023-05-16T04:57:52.836Z,458.00
2023-05-16T04:58:52.869Z,457.00
2023-05-16T04:59:52.847Z,453.00
2023-05-16T05:00:52.830Z,452.00
2023-05-16T05:01:52.850Z,451.00
2023-05-16T05:02:52.891Z,449.00
2023-05-16T05:03:52.808Z,450.00
2023-05-16T05:04:52.841Z,451.00
2023-05-16T05:05:52.817Z,449.00
2023-05-16T05:06:52.793Z,450.00
2023-05-16T05:07:52.771Z,450.00
2023-05-16T05:08:52.774Z,447.00
2023-05-16T05:09:52.753Z,450.00
2023-05-16T05:10:52.794Z,448.00
2023-05-16T05:11:52.717Z,444.00
2023-05-16T05:12:52.753Z,444.00
2023-05-16T05:13:53.108Z,447.00
2023-05-16T05:14:52.730Z,448.00
2023-05-16T05:15:52.727Z,450.00
2023-05-16T05:16:52.717Z,452.00
2023-05-16T05:17:52.861Z,452.00
2023-05-16T05:18:52.788Z,452.00
2023-05-16T05:19:52.694Z,450.00
2023-05-16T05:20:52.679Z,447.00
2023-05-16T05:21:52.684Z,449.00
2023-05-16T05:22:52.668Z,448.00
2023-05-16T05:23:52.661Z,447.00
2023-05-16T05:24:52.652Z,446.00
2023-05-16T05:25:52.642Z,449.00
2023-05-16T05:26:52.628Z,451.00
2023-05-16T05:27:52.604Z,449.00
2023-05-16T05:29:04.669Z,449.00
2023-05-16T05:29:53.621Z,447.00
2023-05-16T05:30:52.613Z,444.00
2023-05-16T05:31:52.633Z,444.00
2023-05-16T05:32:52.724Z,446.00
2023-05-16T05:33:52.600Z,448.00
2023-05-16T05:34:52.612Z,447.00
2023-05-16T05:35:52.595Z,448.00
2023-05-16T05:36:52.574Z,447.00
2023-05-16T05:37:52.557Z,456.00
2023-05-16T05:38:52.617Z,459.00
2023-05-16T05:39:52.665Z,465.00
2023-05-16T05:40:52.743Z,469.00
2023-05-16T05:41:52.810Z,477.00
2023-05-16T05:42:52.837Z,548.00
2023-05-16T05:43:52.906Z,551.00
2023-05-16T05:44:52.924Z,553.00
2023-05-16T05:45:52.992Z,558.00
2023-05-16T05:46:53.000Z,595.00
2023-05-16T05:47:53.080Z,608.00
2023-05-16T05:48:53.035Z,669.00
2023-05-16T05:49:53.007Z,648.00
2023-05-16T05:50:53.049Z,647.00
2023-05-16T05:51:53.025Z,708.00
2023-05-16T05:52:53.007Z,724.00
2023-05-16T05:53:53.005Z,730.00
2023-05-16T05:54:53.014Z,727.00
2023-05-16T05:55:53.028Z,817.00
2023-05-16T05:56:53.012Z,820.00
2023-05-16T05:57:53.080Z,811.00
2023-05-16T05:58:53.094Z,845.00
2023-05-16T05:59:53.038Z,850.00
2023-05-16T06:00:53.035Z,841.00
2023-05-16T06:01:53.257Z,833.00
2023-05-16T06:02:53.373Z,833.00
2023-05-16T06:03:53.039Z,839.00
2023-05-16T06:04:53.058Z,841.00
2023-05-16T06:05:53.117Z,844.00
2023-05-16T06:06:53.117Z,850.00
2023-05-16T06:07:53.164Z,860.00
2023-05-16T06:08:53.188Z,864.00
2023-05-16T06:09:53.254Z,867.00
2023-05-16T06:10:53.313Z,879.00
2023-05-16T06:11:53.380Z,886.00
2023-05-16T06:12:53.444Z,892.00
2023-05-16T06:13:53.466Z,894.00
2023-05-16T06:14:53.530Z,901.00
2023-05-16T06:15:53.578Z,903.00
2023-05-16T06:16:53.700Z,907.00
2023-05-16T06:17:53.763Z,912.00
2023-05-16T06:18:53.832Z,924.00
2023-05-16T06:19:53.834Z,960.00
2023-05-16T06:20:53.846Z,960.00
2023-05-16T06:21:53.896Z,957.00
2023-05-16T06:22:53.950Z,955.00
2023-05-16T06:23:54.004Z,959.00
2023-05-16T06:24:54.055Z,1015.00
2023-05-16T06:25:54.100Z,1043.00
2023-05-16T06:26:54.141Z,1031.00
2023-05-16T06:27:54.196Z,1070.00
2023-05-16T06:28:54.200Z,1061.00
2023-05-16T06:29:54.258Z,1058.00
2023-05-16T06:30:54.382Z,1053.00
2023-05-16T06:31:54.489Z,1100.00
2023-05-16T06:32:54.411Z,1075.00
2023-05-16T06:33:54.434Z,1089.00
2023-05-16T06:34:54.441Z,1131.00
2023-05-16T06:35:54.478Z,1146.00
2023-05-16T06:36:54.507Z,1156.00
2023-05-16T06:37:54.550Z,1166.00
2023-05-16T06:38:54.566Z,1174.00
2023-05-16T06:39:54.588Z,1185.00
2023-05-16T06:40:54.632Z,1209.00
2023-05-16T06:41:56.579Z,1218.00
2023-05-16T06:42:54.769Z,1232.00
2023-05-16T06:43:54.738Z,1243.00
2023-05-16T06:44:54.726Z,1367.00
2023-05-16T06:45:54.736Z,1276.00
2023-05-16T06:46:54.833Z,1235.00
2023-05-16T06:47:57.272Z,1191.00
2023-05-16T06:48:54.786Z,1348.00
2023-05-16T06:49:54.814Z,1141.00
2023-05-16T06:50:54.764Z,1183.00
2023-05-16T06:51:54.789Z,1206.00
2023-05-16T06:52:54.756Z,1111.00
2023-05-16T06:53:54.763Z,1115.00
2023-05-16T06:54:54.752Z,1125.00
2023-05-16T06:55:54.796Z,1141.00
2023-05-16T06:56:54.758Z,1127.00
2023-05-16T06:57:54.739Z,1117.00
2023-05-16T06:58:54.730Z,1106.00
2023-05-16T06:59:54.684Z,1104.00
2023-05-16T07:00:54.729Z,1103.00
2023-05-16T07:01:54.939Z,1128.00
2023-05-16T07:02:54.758Z,1170.00
2023-05-16T07:03:54.816Z,1192.00
2023-05-16T07:04:54.642Z,1206.00
2023-05-16T07:05:54.685Z,1215.00
2023-05-16T07:06:54.627Z,1220.00
2023-05-16T07:07:54.646Z,1226.00
2023-05-16T07:08:54.655Z,1236.00
2023-05-16T07:09:54.639Z,1240.00
2023-05-16T07:10:54.626Z,1255.00
2023-05-16T07:11:54.628Z,1267.00
2023-05-16T07:12:54.621Z,1273.00
2023-05-16T07:13:54.629Z,1270.00
2023-05-16T07:14:54.660Z,1277.00
2023-05-16T07:15:54.604Z,1288.00
2023-05-16T07:16:54.625Z,1290.00
2023-05-16T07:17:54.652Z,1295.00
2023-05-16T07:18:54.584Z,1298.00
2023-05-16T07:19:54.572Z,1307.00
2023-05-16T07:20:54.571Z,1314.00
2023-05-16T07:21:54.570Z,1320.00
2023-05-16T07:22:54.527Z,1324.00
2023-05-16T07:23:54.518Z,1329.00
2023-05-16T07:24:56.094Z,1333.00
2023-05-16T07:25:54.550Z,1333.00
2023-05-16T07:26:54.540Z,1343.00
2023-05-16T07:27:54.547Z,1346.00
2023-05-16T07:28:54.530Z,1347.00
2023-05-16T07:29:54.511Z,1352.00
2023-05-16T07:30:54.522Z,1358.00
2023-05-16T07:31:54.528Z,1358.00
2023-05-16T07:32:54.530Z,1359.00
2023-05-16T07:33:54.499Z,1363.00
2023-05-16T07:34:54.480Z,1368.00
2023-05-16T07:36:07.816Z,1374.00
2023-05-16T07:36:55.467Z,1377.00
2023-05-16T07:37:54.466Z,1381.00
2023-05-16T07:38:54.459Z,1387.00
2023-05-16T07:39:54.451Z,1394.00
2023-05-16T07:40:54.430Z,1403.00
2023-05-16T07:41:54.446Z,1398.00
2023-05-16T07:42:54.426Z,1390.00
2023-05-16T07:43:54.401Z,1394.00
2023-05-16T07:44:54.423Z,1396.00
2023-05-16T07:45:54.450Z,1432.00
2023-05-16T07:46:54.436Z,1416.00
2023-05-16T07:47:54.497Z,1427.00
2023-05-16T07:48:54.520Z,1473.00
2023-05-16T07:49:54.579Z,1477.00
2023-05-16T07:50:55.827Z,1464.00
2023-05-16T07:51:54.691Z,1469.00
2023-05-16T07:52:54.781Z,1461.00
2023-05-16T07:53:54.801Z,1463.00
2023-05-16T07:54:54.881Z,1476.00
2023-05-16T07:55:54.926Z,1481.00
2023-05-16T07:56:54.992Z,1491.00
2023-05-16T07:57:55.117Z,1496.00
2023-05-16T07:58:55.163Z,1505.00
2023-05-16T07:59:55.176Z,1508.00
2023-05-16T08:00:55.279Z,1510.00
2023-05-16T08:01:55.283Z,1520.00
2023-05-16T08:02:55.379Z,1528.00
2023-05-16T08:03:55.413Z,1532.00
2023-05-16T08:04:55.438Z,1533.00
2023-05-16T08:05:55.551Z,1528.00
2023-05-16T08:06:55.540Z,1527.00
2023-05-16T08:07:55.633Z,1530.00
2023-05-16T08:08:55.666Z,1573.00
2023-05-16T08:09:55.713Z,1571.00
2023-05-16T08:10:55.805Z,1583.00
2023-05-16T08:11:55.837Z,1583.00
2023-05-16T08:12:55.872Z,1580.00
2023-05-16T08:13:55.938Z,1575.00
2023-05-16T08:14:56.004Z,1569.00
2023-05-16T08:15:56.019Z,1570.00
2023-05-16T08:16:56.102Z,1568.00
2023-05-16T08:17:56.129Z,1562.00
2023-05-16T08:18:56.181Z,1561.00
2023-05-16T08:19:56.161Z,1565.00
2023-05-16T08:20:56.208Z,1573.00
2023-05-16T08:21:56.217Z,1577.00
2023-05-16T08:22:56.275Z,1583.00
2023-05-16T08:23:56.307Z,1596.00
2023-05-16T08:24:56.322Z,1606.00
2023-05-16T08:25:56.378Z,1620.00
2023-05-16T08:26:56.390Z,1622.00
2023-05-16T08:27:56.410Z,1618.00
2023-05-16T08:28:56.470Z,1613.00
2023-05-16T08:29:56.463Z,1618.00
2023-05-16T08:30:56.543Z,1636.00
2023-05-16T08:31:56.516Z,1648.00
2023-05-16T08:32:56.591Z,1661.00
2023-05-16T08:33:56.551Z,1668.00
2023-05-16T08:34:56.548Z,1672.00
2023-05-16T08:35:56.564Z,1665.00
2023-05-16T08:36:56.578Z,1658.00
2023-05-16T08:37:56.616Z,1661.00
2023-05-16T08:38:56.648Z,1665.00
2023-05-16T08:39:56.628Z,1605.00
2023-05-16T08:40:56.674Z,1577.00
2023-05-16T08:41:56.688Z,1540.00
2023-05-16T08:42:56.708Z,1510.00
2023-05-16T08:43:56.762Z,1511.00
2023-05-16T08:44:56.792Z,1491.00
2023-05-16T08:45:56.831Z,1475.00
2023-05-16T08:46:56.849Z,1478.00
2023-05-16T08:47:56.967Z,1476.00
2023-05-16T08:48:56.910Z,1469.00
2023-05-16T08:49:56.931Z,1422.00
2023-05-16T08:50:57.015Z,1321.00
2023-05-16T08:51:57.021Z,1361.00
2023-05-16T08:52:57.084Z,1240.00
2023-05-16T08:53:57.157Z,1245.00
2023-05-16T08:55:09.407Z,1238.00
2023-05-16T08:55:58.231Z,1202.00
2023-05-16T08:56:57.209Z,1167.00
2023-05-16T08:57:57.215Z,1147.00
2023-05-16T08:58:57.213Z,1136.00
2023-05-16T08:59:59.192Z,1123.00
2023-05-16T09:00:57.200Z,1096.00
2023-05-16T09:01:57.156Z,1075.00
2023-05-16T09:02:57.182Z,1056.00
2023-05-16T09:03:57.267Z,1035.00
2023-05-16T09:04:57.158Z,1022.00
2023-05-16T09:05:57.180Z,1006.00
2023-05-16T09:06:57.119Z,979.00
2023-05-16T09:07:57.106Z,965.00
2023-05-16T09:08:57.095Z,960.00
2023-05-16T09:09:57.108Z,946.00
2023-05-16T09:10:57.092Z,933.00
2023-05-16T09:11:57.108Z,902.00
2023-05-16T09:12:57.083Z,895.00
2023-05-16T09:13:57.089Z,888.00
2023-05-16T09:14:57.078Z,879.00
2023-05-16T09:15:57.086Z,871.00
2023-05-16T09:16:57.094Z,866.00
2023-05-16T09:17:57.140Z,839.00
2023-05-16T09:18:57.170Z,834.00
2023-05-16T09:19:57.105Z,827.00
2023-05-16T09:20:57.123Z,821.00
2023-05-16T09:21:57.116Z,813.00
2023-05-16T09:22:57.142Z,801.00
2023-05-16T09:23:57.146Z,796.00
2023-05-16T09:24:57.302Z,791.00
2023-05-16T09:25:57.206Z,785.00
2023-05-16T09:26:57.217Z,770.00
2023-05-16T09:27:57.218Z,755.00
2023-05-16T09:28:57.228Z,748.00
2023-05-16T09:29:57.227Z,742.00
2023-05-16T09:30:57.252Z,737.00
2023-05-16T09:31:57.233Z,729.00
2023-05-16T09:32:57.353Z,727.00
2023-05-16T09:33:57.279Z,718.00
2023-05-16T09:34:57.249Z,713.00
2023-05-16T09:35:57.299Z,712.00
2023-05-16T09:36:57.321Z,711.00
2023-05-16T09:37:57.290Z,711.00
2023-05-16T09:38:57.287Z,712.00
2023-05-16T09:39:57.334Z,707.00
2023-05-16T09:40:57.296Z,702.00
2023-05-16T09:41:57.304Z,700.00
2023-05-16T09:42:57.330Z,693.00
2023-05-16T09:43:57.334Z,689.00
2023-05-16T09:44:57.348Z,693.00
2023-05-16T09:45:57.384Z,702.00
2023-05-16T09:46:57.394Z,707.00
2023-05-16T09:47:57.396Z,714.00
2023-05-16T09:48:57.341Z,729.00
2023-05-16T09:49:57.362Z,777.00
2023-05-16T09:50:57.368Z,789.00
2023-05-16T09:51:57.403Z,799.00
2023-05-16T09:52:57.575Z,813.00
2023-05-16T09:53:57.519Z,834.00
2023-05-16T09:54:57.600Z,843.00
2023-05-16T09:55:57.664Z,858.00
2023-05-16T09:56:57.699Z,874.00
2023-05-16T09:57:57.815Z,913.00
2023-05-16T09:58:57.793Z,936.00
2023-05-16T09:59:57.851Z,967.00
2023-05-16T10:00:57.896Z,983.00
2023-05-16T10:01:58.022Z,998.00
2023-05-16T10:02:58.105Z,1010.00
2023-05-16T10:03:58.093Z,1021.00
2023-05-16T10:04:58.029Z,1032.00
2023-05-16T10:05:58.049Z,1046.00
2023-05-16T10:06:58.163Z,1058.00
2023-05-16T10:07:58.093Z,1068.00
2023-05-16T10:08:58.147Z,1081.00
2023-05-16T10:09:58.125Z,1096.00
2023-05-16T10:10:58.171Z,1105.00
2023-05-16T10:11:58.175Z,1114.00
2023-05-16T10:12:58.224Z,1127.00
2023-05-16T10:13:58.223Z,1139.00
2023-05-16T10:14:58.233Z,1149.00
2023-05-16T10:15:58.346Z,1155.00
2023-05-16T10:16:58.299Z,1165.00
2023-05-16T10:17:58.297Z,1170.00
2023-05-16T10:18:58.386Z,1186.00
2023-05-16T10:19:58.312Z,1222.00
2023-05-16T10:20:58.339Z,1236.00
2023-05-16T10:21:58.353Z,1239.00
2023-05-16T10:22:58.338Z,1244.00
2023-05-16T10:23:58.317Z,1254.00
2023-05-16T10:24:58.394Z,1268.00
2023-05-16T10:25:58.409Z,1278.00
2023-05-16T10:26:58.353Z,1285.00
2023-05-16T10:27:58.383Z,1290.00
2023-05-16T10:28:58.370Z,1304.00
2023-05-16T10:29:58.361Z,1311.00
2023-05-16T10:30:58.388Z,1322.00
2023-05-16T10:31:58.435Z,1327.00
2023-05-16T10:32:58.403Z,1333.00
2023-05-16T10:33:58.371Z,1338.00
2023-05-16T10:34:58.377Z,1345.00
2023-05-16T10:35:58.430Z,1352.00
2023-05-16T10:36:58.373Z,1356.00
2023-05-16T10:37:58.385Z,1365.00
2023-05-16T10:38:58.386Z,1390.00
2023-05-16T10:39:58.383Z,1428.00
2023-05-16T10:40:58.473Z,1529.00
2023-05-16T10:41:58.432Z,1567.00
2023-05-16T10:42:58.429Z,1573.00
2023-05-16T10:43:58.424Z,1579.00
2023-05-16T10:45:04.812Z,1593.00
2023-05-16T10:45:59.501Z,1610.00
2023-05-16T10:46:58.452Z,1624.00
2023-05-16T10:47:58.518Z,1641.00
2023-05-16T10:48:58.868Z,1661.00
2023-05-16T10:49:58.396Z,1681.00
2023-05-16T10:50:58.396Z,1694.00
2023-05-16T10:51:59.135Z,1706.00
2023-05-16T10:52:58.376Z,1721.00
2023-05-16T10:53:58.429Z,1754.00
2023-05-16T10:54:58.474Z,1776.00
2023-05-16T10:55:58.553Z,1791.00
2023-05-16T10:56:58.590Z,1803.00
2023-05-16T10:57:58.651Z,1819.00
2023-05-16T10:58:58.700Z,1833.00
2023-05-16T10:59:58.746Z,1837.00
2023-05-16T11:00:58.818Z,1852.00
2023-05-16T11:01:58.957Z,1910.00
2023-05-16T11:02:58.993Z,1910.00
2023-05-16T11:03:58.993Z,1924.00
2023-05-16T11:04:58.957Z,1931.00
2023-05-16T11:05:58.982Z,1930.00
2023-05-16T11:06:59.053Z,1940.00
2023-05-16T11:07:59.082Z,1952.00
2023-05-16T11:08:59.134Z,2021.00
2023-05-16T11:09:59.130Z,2011.00
2023-05-16T11:10:59.186Z,2042.00
2023-05-16T11:11:59.218Z,2063.00
2023-05-16T11:12:59.258Z,2078.00
2023-05-16T11:13:59.252Z,2109.00
2023-05-16T11:14:59.298Z,2116.00
2023-05-16T11:15:59.302Z,2143.00
2023-05-16T11:16:59.394Z,2156.00
2023-05-16T11:17:59.352Z,2181.00
2023-05-16T11:18:59.448Z,2146.00
2023-05-16T11:19:59.772Z,2174.00
2023-05-16T11:20:59.438Z,2176.00
2023-05-16T11:21:59.447Z,2183.00
2023-05-16T11:22:59.621Z,2182.00
2023-05-16T11:23:59.480Z,2175.00
2023-05-16T11:24:59.515Z,2196.00
2023-05-16T11:25:59.546Z,2210.00
2023-05-16T11:26:59.543Z,2229.00
2023-05-16T11:27:59.548Z,2252.00
2023-05-16T11:28:59.581Z,2241.00
2023-05-16T11:30:02.604Z,2243.00
2023-05-16T11:30:59.665Z,2238.00
2023-05-16T11:31:59.713Z,2216.00
2023-05-16T11:32:59.655Z,2190.00
2023-05-16T11:33:59.556Z,2151.00
2023-05-16T11:34:59.543Z,2146.00
2023-05-16T11:36:13.951Z,2136.00
2023-05-16T11:37:00.568Z,2131.00
2023-05-16T11:37:59.545Z,2129.00
2023-05-16T11:38:59.522Z,2129.00
2023-05-16T11:39:59.666Z,2116.00
2023-05-16T11:40:59.524Z,2071.00
2023-05-16T11:41:59.543Z,2072.00
2023-05-16T11:42:59.521Z,2059.00
2023-05-16T11:43:59.497Z,2047.00
2023-05-16T11:44:59.685Z,2050.00
2023-05-16T11:45:59.502Z,2057.00
2023-05-16T11:46:59.537Z,2029.00
2023-05-16T11:47:59.538Z,1954.00
2023-05-16T11:48:59.556Z,1957.00
2023-05-16T11:49:59.579Z,1963.00
2023-05-16T11:50:59.694Z,1951.00
2023-05-16T11:51:59.742Z,1927.00
2023-05-16T11:52:59.789Z,1917.00
2023-05-16T11:53:59.848Z,1914.00
2023-05-16T11:54:59.903Z,1913.00
2023-05-16T11:55:59.956Z,1912.00
2023-05-16T11:57:00.020Z,1908.00
2023-05-16T11:58:00.071Z,1916.00
2023-05-16T11:59:00.098Z,1927.00
2023-05-16T12:00:00.128Z,1939.00
2023-05-16T12:01:00.240Z,1936.00
2023-05-16T12:02:00.172Z,1909.00
2023-05-16T12:03:00.273Z,1876.00
2023-05-16T12:04:00.239Z,1824.00
2023-05-16T12:05:00.251Z,1849.00
2023-05-16T12:06:00.158Z,1845.00
2023-05-16T12:07:00.156Z,1815.00
2023-05-16T12:08:00.186Z,1835.00
2023-05-16T12:09:00.172Z,1854.00
2023-05-16T12:10:00.172Z,1849.00
2023-05-16T12:11:00.153Z,1840.00
2023-05-16T12:12:00.190Z,1811.00
2023-05-16T12:13:00.132Z,1826.00
2023-05-16T12:14:00.178Z,1821.00
2023-05-16T12:15:00.168Z,1808.00
2023-05-16T12:16:00.161Z,1808.00
2023-05-16T12:17:00.370Z,1809.00
2023-05-16T12:18:00.202Z,1816.00
2023-05-16T12:19:00.204Z,1816.00
2023-05-16T12:20:00.218Z,1817.00
2023-05-16T12:21:00.185Z,1792.00